sensor_id;sensor_type;location;lat;lon;timestamp;temperature;humidity
3069;DHT22;1545;51.728;8.796;2022-08-01T00:01:55;19.10;98.80
3069;DHT22;1545;51.728;8.796;2022-08-01T00:04:51;19.20;98.80
3069;DHT22;1545;51.728;8.796;2022-08-01T00:08:03;19.10;98.80
3069;DHT22;1545;51.728;8.796;2022-08-01T00:10:37;19.20;98.80
3069;DHT22;1545;51.728;8.796;2022-08-01T00:13:11;19.20;98.80
3069;DHT22;1545;51.728;8.796;2022-08-01T00:15:42;19.20;98.80
3069;DHT22;1545;51.728;8.796;2022-08-01T00:21:26;19.20;98.80
3069;DHT22;1545;51.728;8.796;2022-08-01T00:27:13;19.20;98.80
3069;DHT22;1545;51.728;8.796;2022-08-01T00:29:39;19.20;98.80
3069;DHT22;1545;51.728;8.796;2022-08-01T00:32:09;19.20;98.80
3069;DHT22;1545;51.728;8.796;2022-08-01T00:34:37;19.20;98.80
3069;DHT22;1545;51.728;8.796;2022-08-01T00:37:05;19.20;98.80
3069;DHT22;1545;51.728;8.796;2022-08-01T00:39:34;19.20;98.80
3069;DHT22;1545;51.728;8.796;2022-08-01T00:42:08;19.20;98.80
3069;DHT22;1545;51.728;8.796;2022-08-01T00:44:48;19.20;98.80
3069;DHT22;1545;51.728;8.796;2022-08-01T00:47:16;19.20;98.80
3069;DHT22;1545;51.728;8.796;2022-08-01T00:49:49;19.20;98.80
3069;DHT22;1545;51.728;8.796;2022-08-01T00:52:20;19.20;98.80
3069;DHT22;1545;51.728;8.796;2022-08-01T00:54:51;19.20;98.80
3069;DHT22;1545;51.728;8.796;2022-08-01T00:57:19;19.20;98.80
3069;DHT22;1545;51.728;8.796;2022-08-01T00:59:45;19.20;98.80
3069;DHT22;1545;51.728;8.796;2022-08-01T01:02:32;19.30;98.80
3069;DHT22;1545;51.728;8.796;2022-08-01T01:05:06;19.20;98.80
3069;DHT22;1545;51.728;8.796;2022-08-01T01:10:43;19.10;98.80
3069;DHT22;1545;51.728;8.796;2022-08-01T01:13:18;19.10;98.80
3069;DHT22;1545;51.728;8.796;2022-08-01T01:19:16;19.10;98.80
3069;DHT22;1545;51.728;8.796;2022-08-01T01:28:38;19.10;98.80
3069;DHT22;1545;51.728;8.796;2022-08-01T01:31:10;19.10;98.80
3069;DHT22;1545;51.728;8.796;2022-08-01T01:33:43;19.00;98.80
3069;DHT22;1545;51.728;8.796;2022-08-01T01:36:12;19.00;98.80
3069;DHT22;1545;51.728;8.796;2022-08-01T01:38:45;19.00;98.80
3069;DHT22;1545;51.728;8.796;2022-08-01T01:41:17;19.00;98.80
3069;DHT22;1545;51.728;8.796;2022-08-01T01:43:47;19.00;98.80
3069;DHT22;1545;51.728;8.796;2022-08-01T01:46:21;18.90;98.80
3069;DHT22;1545;51.728;8.796;2022-08-01T01:48:50;18.90;98.80
3069;DHT22;1545;51.728;8.796;2022-08-01T01:51:22;18.90;98.80
3069;DHT22;1545;51.728;8.796;2022-08-01T01:53:51;18.90;98.80
3069;DHT22;1545;51.728;8.796;2022-08-01T01:56:24;18.80;98.80
3069;DHT22;1545;51.728;8.796;2022-08-01T02:05:26;18.50;98.80
3069;DHT22;1545;51.728;8.796;2022-08-01T02:08:42;18.50;98.80
3069;DHT22;1545;51.728;8.796;2022-08-01T02:12:00;18.50;98.80
3069;DHT22;1545;51.728;8.796;2022-08-01T02:18:27;18.50;98.80
3069;DHT22;1545;51.728;8.796;2022-08-01T02:21:06;18.50;98.80
3069;DHT22;1545;51.728;8.796;2022-08-01T02:23:43;18.50;98.80
3069;DHT22;1545;51.728;8.796;2022-08-01T02:26:40;18.50;98.80
3069;DHT22;1545;51.728;8.796;2022-08-01T02:29:22;18.50;98.80
3069;DHT22;1545;51.728;8.796;2022-08-01T02:32:16;18.50;98.80
3069;DHT22;1545;51.728;8.796;2022-08-01T02:34:56;18.60;98.80
3069;DHT22;1545;51.728;8.796;2022-08-01T02:37:36;18.60;98.80
3069;DHT22;1545;51.728;8.796;2022-08-01T02:40:11;18.60;98.80
3069;DHT22;1545;51.728;8.796;2022-08-01T02:45:36;18.60;98.80
3069;DHT22;1545;51.728;8.796;2022-08-01T02:48:17;18.50;98.80
3069;DHT22;1545;51.728;8.796;2022-08-01T02:50:57;18.50;98.80
3069;DHT22;1545;51.728;8.796;2022-08-01T02:53:31;18.50;98.80
3069;DHT22;1545;51.728;8.796;2022-08-01T02:56:04;18.50;98.80
3069;DHT22;1545;51.728;8.796;2022-08-01T02:58:35;18.50;98.80
3069;DHT22;1545;51.728;8.796;2022-08-01T03:01:04;18.50;98.80
3069;DHT22;1545;51.728;8.796;2022-08-01T03:03:32;18.40;98.80
3069;DHT22;1545;51.728;8.796;2022-08-01T03:06:05;18.40;98.80
3069;DHT22;1545;51.728;8.796;2022-08-01T03:08:42;18.40;98.80
3069;DHT22;1545;51.728;8.796;2022-08-01T03:11:12;18.40;98.80
3069;DHT22;1545;51.728;8.796;2022-08-01T03:13:46;18.30;98.80
3069;DHT22;1545;51.728;8.796;2022-08-01T03:16:13;18.30;98.80
3069;DHT22;1545;51.728;8.796;2022-08-01T03:18:54;18.30;98.80
3069;DHT22;1545;51.728;8.796;2022-08-01T03:21:30;18.30;98.80
3069;DHT22;1545;51.728;8.796;2022-08-01T03:23:58;18.30;98.80
3069;DHT22;1545;51.728;8.796;2022-08-01T03:26:36;18.30;98.80
3069;DHT22;1545;51.728;8.796;2022-08-01T03:29:16;18.30;98.80
3069;DHT22;1545;51.728;8.796;2022-08-01T03:31:44;18.40;98.80
3069;DHT22;1545;51.728;8.796;2022-08-01T03:34:12;18.40;98.80
3069;DHT22;1545;51.728;8.796;2022-08-01T03:36:46;18.40;98.80
3069;DHT22;1545;51.728;8.796;2022-08-01T03:39:13;18.40;98.80
3069;DHT22;1545;51.728;8.796;2022-08-01T03:41:47;18.40;98.80
3069;DHT22;1545;51.728;8.796;2022-08-01T03:44:16;18.40;98.80
3069;DHT22;1545;51.728;8.796;2022-08-01T03:46:52;18.40;98.80
3069;DHT22;1545;51.728;8.796;2022-08-01T03:49:26;18.40;98.80
3069;DHT22;1545;51.728;8.796;2022-08-01T03:51:55;18.40;98.80
3069;DHT22;1545;51.728;8.796;2022-08-01T03:54:24;18.40;98.80
3069;DHT22;1545;51.728;8.796;2022-08-01T03:56:53;18.40;98.80
3069;DHT22;1545;51.728;8.796;2022-08-01T03:59:20;18.40;98.80
3069;DHT22;1545;51.728;8.796;2022-08-01T04:01:50;18.40;98.80
3069;DHT22;1545;51.728;8.796;2022-08-01T04:04:20;18.40;98.80
3069;DHT22;1545;51.728;8.796;2022-08-01T04:06:48;18.40;98.80
3069;DHT22;1545;51.728;8.796;2022-08-01T04:09:19;18.40;98.80
3069;DHT22;1545;51.728;8.796;2022-08-01T04:11:45;18.40;98.80
3069;DHT22;1545;51.728;8.796;2022-08-01T04:14:20;18.40;98.80
3069;DHT22;1545;51.728;8.796;2022-08-01T04:16:45;18.40;98.80
3069;DHT22;1545;51.728;8.796;2022-08-01T04:19:11;18.40;98.80
3069;DHT22;1545;51.728;8.796;2022-08-01T04:21:39;18.40;98.80
3069;DHT22;1545;51.728;8.796;2022-08-01T04:24:10;18.30;98.80
3069;DHT22;1545;51.728;8.796;2022-08-01T04:26:44;18.30;98.80
3069;DHT22;1545;51.728;8.796;2022-08-01T04:29:13;18.40;98.80
3069;DHT22;1545;51.728;8.796;2022-08-01T04:31:43;18.40;98.80
3069;DHT22;1545;51.728;8.796;2022-08-01T04:34:14;18.40;98.80
3069;DHT22;1545;51.728;8.796;2022-08-01T04:36:41;18.40;98.80
3069;DHT22;1545;51.728;8.796;2022-08-01T04:39:08;18.40;98.80
3069;DHT22;1545;51.728;8.796;2022-08-01T04:41:36;18.50;98.80
3069;DHT22;1545;51.728;8.796;2022-08-01T04:44:07;18.50;98.80
3069;DHT22;1545;51.728;8.796;2022-08-01T04:46:39;18.60;98.80
3069;DHT22;1545;51.728;8.796;2022-08-01T04:49:08;18.50;98.80
3069;DHT22;1545;51.728;8.796;2022-08-01T04:51:37;18.50;98.80
3069;DHT22;1545;51.728;8.796;2022-08-01T04:54:14;18.50;98.80
3069;DHT22;1545;51.728;8.796;2022-08-01T04:56:42;18.60;98.80
3069;DHT22;1545;51.728;8.796;2022-08-01T04:59:08;18.60;98.80
3069;DHT22;1545;51.728;8.796;2022-08-01T05:01:52;18.60;98.80
3069;DHT22;1545;51.728;8.796;2022-08-01T05:04:25;18.60;98.80
3069;DHT22;1545;51.728;8.796;2022-08-01T05:06:52;18.60;98.80
3069;DHT22;1545;51.728;8.796;2022-08-01T05:09:23;18.60;98.80
3069;DHT22;1545;51.728;8.796;2022-08-01T05:11:48;18.60;98.80
3069;DHT22;1545;51.728;8.796;2022-08-01T05:14:19;18.60;98.80
3069;DHT22;1545;51.728;8.796;2022-08-01T05:16:46;18.70;98.80
3069;DHT22;1545;51.728;8.796;2022-08-01T05:19:20;18.70;98.80
3069;DHT22;1545;51.728;8.796;2022-08-01T05:21:50;18.70;98.80
3069;DHT22;1545;51.728;8.796;2022-08-01T05:24:21;18.70;98.80
3069;DHT22;1545;51.728;8.796;2022-08-01T05:26:50;18.70;98.80
3069;DHT22;1545;51.728;8.796;2022-08-01T05:29:27;18.70;98.80
3069;DHT22;1545;51.728;8.796;2022-08-01T05:32:03;18.70;98.80
3069;DHT22;1545;51.728;8.796;2022-08-01T05:34:39;18.70;98.80
3069;DHT22;1545;51.728;8.796;2022-08-01T05:37:04;18.70;98.80
3069;DHT22;1545;51.728;8.796;2022-08-01T05:39:32;18.70;98.80
3069;DHT22;1545;51.728;8.796;2022-08-01T05:42:01;18.80;98.80
3069;DHT22;1545;51.728;8.796;2022-08-01T05:44:27;19.00;98.80
3069;DHT22;1545;51.728;8.796;2022-08-01T05:47:00;19.10;98.80
3069;DHT22;1545;51.728;8.796;2022-08-01T05:49:28;19.20;98.80
3069;DHT22;1545;51.728;8.796;2022-08-01T05:51:56;19.20;98.80
3069;DHT22;1545;51.728;8.796;2022-08-01T05:54:26;19.20;98.80
3069;DHT22;1545;51.728;8.796;2022-08-01T05:56:57;19.30;98.80
3069;DHT22;1545;51.728;8.796;2022-08-01T05:59:30;19.40;98.80
3069;DHT22;1545;51.728;8.796;2022-08-01T06:01:56;19.40;98.80
3069;DHT22;1545;51.728;8.796;2022-08-01T06:04:24;19.50;98.80
3069;DHT22;1545;51.728;8.796;2022-08-01T06:06:52;19.40;98.80
3069;DHT22;1545;51.728;8.796;2022-08-01T06:09:17;19.50;98.80
3069;DHT22;1545;51.728;8.796;2022-08-01T06:11:50;19.60;98.80
3069;DHT22;1545;51.728;8.796;2022-08-01T06:14:18;19.60;98.80
3069;DHT22;1545;51.728;8.796;2022-08-01T06:16:44;19.60;98.80
3069;DHT22;1545;51.728;8.796;2022-08-01T06:19:13;19.60;98.80
3069;DHT22;1545;51.728;8.796;2022-08-01T06:21:40;19.60;98.80
3069;DHT22;1545;51.728;8.796;2022-08-01T06:24:11;19.60;98.80
3069;DHT22;1545;51.728;8.796;2022-08-01T06:26:37;19.70;98.80
3069;DHT22;1545;51.728;8.796;2022-08-01T06:29:03;19.70;98.80
3069;DHT22;1545;51.728;8.796;2022-08-01T06:31:28;19.70;98.80
3069;DHT22;1545;51.728;8.796;2022-08-01T06:33:56;19.80;98.80
3069;DHT22;1545;51.728;8.796;2022-08-01T06:36:22;19.80;98.80
3069;DHT22;1545;51.728;8.796;2022-08-01T06:38:48;19.80;98.80
3069;DHT22;1545;51.728;8.796;2022-08-01T06:41:13;19.90;98.80
3069;DHT22;1545;51.728;8.796;2022-08-01T06:43:39;20.00;98.80
3069;DHT22;1545;51.728;8.796;2022-08-01T06:46:04;20.00;98.70
3069;DHT22;1545;51.728;8.796;2022-08-01T06:48:30;20.00;98.20
3069;DHT22;1545;51.728;8.796;2022-08-01T06:50:55;20.00;98.70
3069;DHT22;1545;51.728;8.796;2022-08-01T06:53:37;19.90;98.80
3069;DHT22;1545;51.728;8.796;2022-08-01T06:56:03;20.00;98.80
3069;DHT22;1545;51.728;8.796;2022-08-01T06:58:29;20.20;98.80
3069;DHT22;1545;51.728;8.796;2022-08-01T07:00:55;20.40;98.50
3069;DHT22;1545;51.728;8.796;2022-08-01T07:03:20;20.60;97.10
3069;DHT22;1545;51.728;8.796;2022-08-01T07:05:46;20.90;96.50
3069;DHT22;1545;51.728;8.796;2022-08-01T07:08:11;21.10;94.40
3069;DHT22;1545;51.728;8.796;2022-08-01T07:10:37;21.30;94.60
3069;DHT22;1545;51.728;8.796;2022-08-01T07:13:02;21.40;93.60
3069;DHT22;1545;51.728;8.796;2022-08-01T07:15:28;21.60;92.60
3069;DHT22;1545;51.728;8.796;2022-08-01T07:17:53;21.60;91.90
3069;DHT22;1545;51.728;8.796;2022-08-01T07:20:19;21.40;92.90
3069;DHT22;1545;51.728;8.796;2022-08-01T07:22:45;21.40;93.10
3069;DHT22;1545;51.728;8.796;2022-08-01T07:25:10;21.10;92.90
3069;DHT22;1545;51.728;8.796;2022-08-01T07:27:36;20.90;93.50
3069;DHT22;1545;51.728;8.796;2022-08-01T07:30:05;20.80;95.20
3069;DHT22;1545;51.728;8.796;2022-08-01T07:32:31;20.80;95.10
3069;DHT22;1545;51.728;8.796;2022-08-01T07:34:56;20.80;95.00
3069;DHT22;1545;51.728;8.796;2022-08-01T07:37:22;20.70;95.20
3069;DHT22;1545;51.728;8.796;2022-08-01T07:39:49;20.60;95.90
3069;DHT22;1545;51.728;8.796;2022-08-01T07:42:14;20.60;96.30
3069;DHT22;1545;51.728;8.796;2022-08-01T07:44:42;20.40;97.50
3069;DHT22;1545;51.728;8.796;2022-08-01T07:47:08;20.40;98.00
3069;DHT22;1545;51.728;8.796;2022-08-01T07:53:19;20.90;95.90
3069;DHT22;1545;51.728;8.796;2022-08-01T07:55:54;21.30;95.70
3069;DHT22;1545;51.728;8.796;2022-08-01T07:58:22;21.60;93.70
3069;DHT22;1545;51.728;8.796;2022-08-01T08:00:50;21.70;91.70
3069;DHT22;1545;51.728;8.796;2022-08-01T08:03:25;21.90;91.60
3069;DHT22;1545;51.728;8.796;2022-08-01T08:06:03;21.90;90.10
3069;DHT22;1545;51.728;8.796;2022-08-01T08:08:39;21.70;90.30
3069;DHT22;1545;51.728;8.796;2022-08-01T08:11:15;21.60;91.00
3069;DHT22;1545;51.728;8.796;2022-08-01T08:14:00;21.70;91.70
3069;DHT22;1545;51.728;8.796;2022-08-01T08:16:28;21.60;92.00
3069;DHT22;1545;51.728;8.796;2022-08-01T08:18:54;21.40;92.50
3069;DHT22;1545;51.728;8.796;2022-08-01T08:21:25;21.20;94.20
3069;DHT22;1545;51.728;8.796;2022-08-01T08:23:50;21.40;94.40
3069;DHT22;1545;51.728;8.796;2022-08-01T08:26:35;21.40;93.10
3069;DHT22;1545;51.728;8.796;2022-08-01T08:29:21;21.40;93.30
3069;DHT22;1545;51.728;8.796;2022-08-01T08:31:59;21.40;93.90
3069;DHT22;1545;51.728;8.796;2022-08-01T08:34:44;21.40;94.00
3069;DHT22;1545;51.728;8.796;2022-08-01T08:37:14;21.50;92.90
3069;DHT22;1545;51.728;8.796;2022-08-01T08:39:50;21.60;91.30
3069;DHT22;1545;51.728;8.796;2022-08-01T08:42:31;21.40;91.70
3069;DHT22;1545;51.728;8.796;2022-08-01T08:45:20;21.20;92.90
3069;DHT22;1545;51.728;8.796;2022-08-01T08:47:57;20.90;94.00
3069;DHT22;1545;51.728;8.796;2022-08-01T08:50:29;20.80;95.00
3069;DHT22;1545;51.728;8.796;2022-08-01T08:53:01;20.80;95.60
3069;DHT22;1545;51.728;8.796;2022-08-01T08:55:29;20.80;95.30
3069;DHT22;1545;51.728;8.796;2022-08-01T08:58:24;21.00;95.10
3069;DHT22;1545;51.728;8.796;2022-08-01T09:00:54;21.20;94.60
3069;DHT22;1545;51.728;8.796;2022-08-01T09:03:29;21.50;93.50
3069;DHT22;1545;51.728;8.796;2022-08-01T09:06:13;21.80;92.90
3069;DHT22;1545;51.728;8.796;2022-08-01T09:08:46;22.20;92.00
3069;DHT22;1545;51.728;8.796;2022-08-01T09:11:28;22.50;89.30
3069;DHT22;1545;51.728;8.796;2022-08-01T09:14:08;23.00;88.90
3069;DHT22;1545;51.728;8.796;2022-08-01T09:17:00;23.50;85.40
3069;DHT22;1545;51.728;8.796;2022-08-01T09:22:40;24.30;81.40
3069;DHT22;1545;51.728;8.796;2022-08-01T09:25:16;24.80;81.70
3069;DHT22;1545;51.728;8.796;2022-08-01T09:27:44;25.40;79.20
3069;DHT22;1545;51.728;8.796;2022-08-01T09:30:17;25.50;77.00
3069;DHT22;1545;51.728;8.796;2022-08-01T09:32:53;25.60;77.40
3069;DHT22;1545;51.728;8.796;2022-08-01T09:35:33;25.90;76.40
3069;DHT22;1545;51.728;8.796;2022-08-01T09:38:17;26.30;76.20
3069;DHT22;1545;51.728;8.796;2022-08-01T09:41:01;26.60;74.90
3069;DHT22;1545;51.728;8.796;2022-08-01T09:43:37;26.80;74.60
3069;DHT22;1545;51.728;8.796;2022-08-01T09:46:10;27.00;74.20
3069;DHT22;1545;51.728;8.796;2022-08-01T09:48:57;27.30;74.10
3069;DHT22;1545;51.728;8.796;2022-08-01T09:51:29;27.40;73.00
3069;DHT22;1545;51.728;8.796;2022-08-01T09:54:01;27.60;73.40
3069;DHT22;1545;51.728;8.796;2022-08-01T09:56:38;27.10;73.10
3069;DHT22;1545;51.728;8.796;2022-08-01T09:59:08;26.80;75.20
3069;DHT22;1545;51.728;8.796;2022-08-01T10:01:52;26.30;76.40
3069;DHT22;1545;51.728;8.796;2022-08-01T10:04:21;25.60;76.80
3069;DHT22;1545;51.728;8.796;2022-08-01T10:06:58;25.10;77.80
3069;DHT22;1545;51.728;8.796;2022-08-01T10:09:39;24.40;78.90
3069;DHT22;1545;51.728;8.796;2022-08-01T10:12:16;23.60;81.00
3069;DHT22;1545;51.728;8.796;2022-08-01T10:14:49;23.10;82.20
3069;DHT22;1545;51.728;8.796;2022-08-01T10:17:24;23.10;84.10
3069;DHT22;1545;51.728;8.796;2022-08-01T10:19:51;23.50;83.50
3069;DHT22;1545;51.728;8.796;2022-08-01T10:22:24;23.70;82.30
3069;DHT22;1545;51.728;8.796;2022-08-01T10:24:55;23.20;83.90
3069;DHT22;1545;51.728;8.796;2022-08-01T10:27:27;22.80;85.20
3069;DHT22;1545;51.728;8.796;2022-08-01T10:29:57;22.30;88.10
3069;DHT22;1545;51.728;8.796;2022-08-01T10:32:31;22.00;91.00
3069;DHT22;1545;51.728;8.796;2022-08-01T10:34:58;21.80;91.90
3069;DHT22;1545;51.728;8.796;2022-08-01T10:37:33;21.30;91.80
3069;DHT22;1545;51.728;8.796;2022-08-01T10:59:00;20.50;98.70
3069;DHT22;1545;51.728;8.796;2022-08-01T11:13:09;22.20;91.80
3069;DHT22;1545;51.728;8.796;2022-08-01T11:16:36;22.40;87.80
3069;DHT22;1545;51.728;8.796;2022-08-01T11:22:32;22.90;86.70
3069;DHT22;1545;51.728;8.796;2022-08-01T11:25:21;22.90;86.40
3069;DHT22;1545;51.728;8.796;2022-08-01T11:31:24;23.60;84.10
3069;DHT22;1545;51.728;8.796;2022-08-01T11:34:00;23.60;85.30
3069;DHT22;1545;51.728;8.796;2022-08-01T11:54:02;21.80;89.20
3069;DHT22;1545;51.728;8.796;2022-08-01T12:00:23;21.60;91.50
3069;DHT22;1545;51.728;8.796;2022-08-01T12:06:51;22.60;88.80
3069;DHT22;1545;51.728;8.796;2022-08-01T12:09:39;23.20;85.50
3069;DHT22;1545;51.728;8.796;2022-08-01T12:12:36;23.50;81.20
3069;DHT22;1545;51.728;8.796;2022-08-01T12:15:17;23.60;80.30
3069;DHT22;1545;51.728;8.796;2022-08-01T12:18:06;23.50;80.40
3069;DHT22;1545;51.728;8.796;2022-08-01T12:20:46;23.90;82.10
3069;DHT22;1545;51.728;8.796;2022-08-01T12:23:17;24.00;79.10
3069;DHT22;1545;51.728;8.796;2022-08-01T12:25:43;24.10;80.90
3069;DHT22;1545;51.728;8.796;2022-08-01T12:28:13;23.90;76.90
3069;DHT22;1545;51.728;8.796;2022-08-01T12:30:43;23.80;77.90
3069;DHT22;1545;51.728;8.796;2022-08-01T12:33:19;23.80;78.60
3069;DHT22;1545;51.728;8.796;2022-08-01T12:35:46;23.80;79.70
3069;DHT22;1545;51.728;8.796;2022-08-01T12:38:19;23.80;79.90
3069;DHT22;1545;51.728;8.796;2022-08-01T12:40:47;23.60;79.80
3069;DHT22;1545;51.728;8.796;2022-08-01T12:43:17;23.80;79.90
3069;DHT22;1545;51.728;8.796;2022-08-01T12:45:45;23.70;78.70
3069;DHT22;1545;51.728;8.796;2022-08-01T12:48:14;23.60;80.10
3069;DHT22;1545;51.728;8.796;2022-08-01T12:50:48;23.40;80.10
3069;DHT22;1545;51.728;8.796;2022-08-01T12:53:14;23.40;80.90
3069;DHT22;1545;51.728;8.796;2022-08-01T12:55:59;23.60;81.80
3069;DHT22;1545;51.728;8.796;2022-08-01T12:58:30;23.60;81.50
3069;DHT22;1545;51.728;8.796;2022-08-01T13:01:05;23.60;81.70
3069;DHT22;1545;51.728;8.796;2022-08-01T13:03:31;23.70;81.20
3069;DHT22;1545;51.728;8.796;2022-08-01T13:09:10;23.70;81.20
3069;DHT22;1545;51.728;8.796;2022-08-01T13:11:37;23.40;81.90
3069;DHT22;1545;51.728;8.796;2022-08-01T13:14:05;23.30;82.50
3069;DHT22;1545;51.728;8.796;2022-08-01T13:16:30;23.10;82.60
3069;DHT22;1545;51.728;8.796;2022-08-01T13:19:01;23.10;82.90
3069;DHT22;1545;51.728;8.796;2022-08-01T13:21:28;23.30;82.70
3069;DHT22;1545;51.728;8.796;2022-08-01T13:29:15;23.50;80.40
3069;DHT22;1545;51.728;8.796;2022-08-01T13:31:41;23.50;81.30
3069;DHT22;1545;51.728;8.796;2022-08-01T13:34:07;23.90;80.20
3069;DHT22;1545;51.728;8.796;2022-08-01T13:36:34;24.00;79.10
3069;DHT22;1545;51.728;8.796;2022-08-01T13:39:03;24.40;77.90
3069;DHT22;1545;51.728;8.796;2022-08-01T13:41:53;23.70;78.20
3069;DHT22;1545;51.728;8.796;2022-08-01T13:44:18;23.20;81.00
3069;DHT22;1545;51.728;8.796;2022-08-01T13:46:45;23.30;81.60
3069;DHT22;1545;51.728;8.796;2022-08-01T13:49:13;23.50;80.20
3069;DHT22;1545;51.728;8.796;2022-08-01T13:51:39;23.10;80.10
3069;DHT22;1545;51.728;8.796;2022-08-01T13:54:08;23.10;80.90
3069;DHT22;1545;51.728;8.796;2022-08-01T13:56:34;23.00;79.30
3069;DHT22;1545;51.728;8.796;2022-08-01T13:59:00;22.60;79.00
3069;DHT22;1545;51.728;8.796;2022-08-01T14:01:25;22.50;80.20
3069;DHT22;1545;51.728;8.796;2022-08-01T14:03:54;22.50;80.10
3069;DHT22;1545;51.728;8.796;2022-08-01T14:06:22;22.80;80.00
3069;DHT22;1545;51.728;8.796;2022-08-01T14:08:51;23.00;78.90
3069;DHT22;1545;51.728;8.796;2022-08-01T14:11:17;23.20;79.10
3069;DHT22;1545;51.728;8.796;2022-08-01T14:13:43;22.80;77.40
3069;DHT22;1545;51.728;8.796;2022-08-01T14:16:09;22.70;78.40
3069;DHT22;1545;51.728;8.796;2022-08-01T14:18:34;23.10;79.60
3069;DHT22;1545;51.728;8.796;2022-08-01T14:21:03;23.50;78.30
3069;DHT22;1545;51.728;8.796;2022-08-01T14:23:28;22.90;78.60
3069;DHT22;1545;51.728;8.796;2022-08-01T14:25:57;22.70;79.80
3069;DHT22;1545;51.728;8.796;2022-08-01T14:28:25;22.40;80.80
3069;DHT22;1545;51.728;8.796;2022-08-01T14:30:52;22.30;81.00
3069;DHT22;1545;51.728;8.796;2022-08-01T14:33:20;22.30;80.70
3069;DHT22;1545;51.728;8.796;2022-08-01T14:35:46;22.30;80.60
3069;DHT22;1545;51.728;8.796;2022-08-01T14:38:12;22.20;80.60
3069;DHT22;1545;51.728;8.796;2022-08-01T14:40:37;22.40;80.20
3069;DHT22;1545;51.728;8.796;2022-08-01T14:43:06;22.30;80.10
3069;DHT22;1545;51.728;8.796;2022-08-01T14:45:34;22.20;79.00
3069;DHT22;1545;51.728;8.796;2022-08-01T14:48:00;22.40;78.80
3069;DHT22;1545;51.728;8.796;2022-08-01T14:50:26;22.60;78.50
3069;DHT22;1545;51.728;8.796;2022-08-01T14:52:54;22.50;78.70
3069;DHT22;1545;51.728;8.796;2022-08-01T14:55:25;22.70;78.30
3069;DHT22;1545;51.728;8.796;2022-08-01T14:57:52;22.90;77.00
3069;DHT22;1545;51.728;8.796;2022-08-01T15:00:18;22.80;76.80
3069;DHT22;1545;51.728;8.796;2022-08-01T15:02:47;23.10;75.90
3069;DHT22;1545;51.728;8.796;2022-08-01T15:05:13;23.60;74.10
3069;DHT22;1545;51.728;8.796;2022-08-01T15:07:38;23.60;72.70
3069;DHT22;1545;51.728;8.796;2022-08-01T15:10:05;23.40;74.00
3069;DHT22;1545;51.728;8.796;2022-08-01T15:12:31;23.10;73.70
3069;DHT22;1545;51.728;8.796;2022-08-01T15:14:59;22.90;75.50
3069;DHT22;1545;51.728;8.796;2022-08-01T15:17:29;22.90;75.50
3069;DHT22;1545;51.728;8.796;2022-08-01T15:19:57;22.90;75.40
3069;DHT22;1545;51.728;8.796;2022-08-01T15:22:25;22.90;75.20
3069;DHT22;1545;51.728;8.796;2022-08-01T15:24:54;22.90;75.50
3069;DHT22;1545;51.728;8.796;2022-08-01T15:27:20;22.90;76.00
3069;DHT22;1545;51.728;8.796;2022-08-01T15:29:49;23.30;75.40
3069;DHT22;1545;51.728;8.796;2022-08-01T15:32:15;23.50;75.80
3069;DHT22;1545;51.728;8.796;2022-08-01T15:34:45;23.60;76.60
3069;DHT22;1545;51.728;8.796;2022-08-01T15:37:13;23.70;75.40
3069;DHT22;1545;51.728;8.796;2022-08-01T15:39:39;23.60;75.20
3069;DHT22;1545;51.728;8.796;2022-08-01T15:42:08;23.40;74.70
3069;DHT22;1545;51.728;8.796;2022-08-01T15:44:37;23.40;74.90
3069;DHT22;1545;51.728;8.796;2022-08-01T15:47:05;23.30;74.50
3069;DHT22;1545;51.728;8.796;2022-08-01T15:49:35;23.20;75.10
3069;DHT22;1545;51.728;8.796;2022-08-01T15:52:08;23.10;75.30
3069;DHT22;1545;51.728;8.796;2022-08-01T15:54:34;23.30;74.50
3069;DHT22;1545;51.728;8.796;2022-08-01T15:57:00;23.50;74.70
3069;DHT22;1545;51.728;8.796;2022-08-01T15:59:26;23.60;73.30
3069;DHT22;1545;51.728;8.796;2022-08-01T16:01:52;23.60;74.30
3069;DHT22;1545;51.728;8.796;2022-08-01T16:04:18;23.70;74.80
3069;DHT22;1545;51.728;8.796;2022-08-01T16:06:46;23.40;74.70
3069;DHT22;1545;51.728;8.796;2022-08-01T16:09:14;23.40;74.60
3069;DHT22;1545;51.728;8.796;2022-08-01T16:11:39;23.60;74.00
3069;DHT22;1545;51.728;8.796;2022-08-01T16:14:05;23.90;74.50
3069;DHT22;1545;51.728;8.796;2022-08-01T16:16:31;23.90;73.30
3069;DHT22;1545;51.728;8.796;2022-08-01T16:18:56;24.00;74.10
3069;DHT22;1545;51.728;8.796;2022-08-01T16:21:25;23.90;73.40
3069;DHT22;1545;51.728;8.796;2022-08-01T16:23:54;23.80;73.90
3069;DHT22;1545;51.728;8.796;2022-08-01T16:26:20;23.80;74.50
3069;DHT22;1545;51.728;8.796;2022-08-01T16:28:48;23.70;74.10
3069;DHT22;1545;51.728;8.796;2022-08-01T16:31:17;23.70;74.30
3069;DHT22;1545;51.728;8.796;2022-08-01T16:33:43;23.60;74.90
3069;DHT22;1545;51.728;8.796;2022-08-01T16:36:10;23.70;75.00
3069;DHT22;1545;51.728;8.796;2022-08-01T16:38:37;23.60;73.70
3069;DHT22;1545;51.728;8.796;2022-08-01T16:41:03;23.40;74.50
3069;DHT22;1545;51.728;8.796;2022-08-01T16:43:28;23.20;75.30
3069;DHT22;1545;51.728;8.796;2022-08-01T16:45:54;22.90;76.00
3069;DHT22;1545;51.728;8.796;2022-08-01T16:48:20;22.90;75.60
3069;DHT22;1545;51.728;8.796;2022-08-01T16:50:47;22.60;75.80
3069;DHT22;1545;51.728;8.796;2022-08-01T16:53:15;22.40;76.90
3069;DHT22;1545;51.728;8.796;2022-08-01T16:55:41;22.40;76.80
3069;DHT22;1545;51.728;8.796;2022-08-01T16:58:06;22.50;77.10
3069;DHT22;1545;51.728;8.796;2022-08-01T17:00:32;22.40;77.10
3069;DHT22;1545;51.728;8.796;2022-08-01T17:02:59;22.40;77.80
3069;DHT22;1545;51.728;8.796;2022-08-01T17:05:25;22.50;78.80
3069;DHT22;1545;51.728;8.796;2022-08-01T17:07:52;22.50;78.90
3069;DHT22;1545;51.728;8.796;2022-08-01T17:10:18;22.60;79.50
3069;DHT22;1545;51.728;8.796;2022-08-01T17:12:44;22.50;78.30
3069;DHT22;1545;51.728;8.796;2022-08-01T17:15:10;22.30;77.90
3069;DHT22;1545;51.728;8.796;2022-08-01T17:17:35;22.10;78.70
3069;DHT22;1545;51.728;8.796;2022-08-01T17:20:01;22.00;77.90
3069;DHT22;1545;51.728;8.796;2022-08-01T17:22:27;22.00;77.40
3069;DHT22;1545;51.728;8.796;2022-08-01T17:24:52;22.20;77.50
3069;DHT22;1545;51.728;8.796;2022-08-01T17:27:18;22.20;77.80
3069;DHT22;1545;51.728;8.796;2022-08-01T17:29:44;22.40;78.10
3069;DHT22;1545;51.728;8.796;2022-08-01T17:32:10;22.50;77.50
3069;DHT22;1545;51.728;8.796;2022-08-01T17:34:36;22.60;77.10
3069;DHT22;1545;51.728;8.796;2022-08-01T17:37:04;22.60;77.10
3069;DHT22;1545;51.728;8.796;2022-08-01T17:39:29;22.60;77.20
3069;DHT22;1545;51.728;8.796;2022-08-01T17:41:55;22.60;77.00
3069;DHT22;1545;51.728;8.796;2022-08-01T17:44:20;22.50;77.30
3069;DHT22;1545;51.728;8.796;2022-08-01T17:46:46;22.40;78.20
3069;DHT22;1545;51.728;8.796;2022-08-01T17:49:11;22.20;77.40
3069;DHT22;1545;51.728;8.796;2022-08-01T17:51:37;21.80;78.20
3069;DHT22;1545;51.728;8.796;2022-08-01T17:54:03;21.60;78.60
3069;DHT22;1545;51.728;8.796;2022-08-01T17:56:28;21.50;78.90
3069;DHT22;1545;51.728;8.796;2022-08-01T17:58:54;21.50;78.90
3069;DHT22;1545;51.728;8.796;2022-08-01T18:01:20;21.40;78.00
3069;DHT22;1545;51.728;8.796;2022-08-01T18:03:46;21.40;78.20
3069;DHT22;1545;51.728;8.796;2022-08-01T18:06:13;21.40;77.90
3069;DHT22;1545;51.728;8.796;2022-08-01T18:08:38;21.50;78.10
3069;DHT22;1545;51.728;8.796;2022-08-01T18:11:06;21.60;78.10
3069;DHT22;1545;51.728;8.796;2022-08-01T18:13:32;21.60;78.30
3069;DHT22;1545;51.728;8.796;2022-08-01T18:15:57;21.60;78.60
3069;DHT22;1545;51.728;8.796;2022-08-01T18:18:23;21.60;78.40